Time;durP1;ratioP1;P1;durP2;ratioP2;P2;SDS_P1;SDS_P2;PMS_P1;PMS_P2;Temp;Humidity;BMP_temperature;BMP_pressure;BME280_temperature;BME280_humidity;BME280_pressure;Samples;Min_cycle;Max_cycle;Signal;HPM_P1;HPM_P2
2022/04/08 00:00:05;;;;;;;;;;;15.10;94.30;;;;;;5206532;28;20358;-38
2022/04/08 00:02:56;;;;;;;;;;;15.10;94.10;;;;;;5207344;28;19921;-39
2022/04/08 00:05:45;;;;;;;;;;;15.10;94.10;;;;;;5207580;28;19925;-38
2022/04/08 00:08:16;;;;;;;;;;;15.10;94.00;;;;;;5207693;28;19947;-38
2022/04/08 00:10:47;;;;;;;;;;;15.00;94.00;;;;;;5207644;28;19932;-38
2022/04/08 00:13:18;;;;;;;;;;;15.00;93.80;;;;;;5207388;28;19921;-41
2022/04/08 00:15:49;;;;;;;;;;;15.00;93.80;;;;;;5207509;28;19928;-39
2022/04/08 00:18:20;;;;;;;;;;;15.00;93.70;;;;;;5208142;28;19925;-39
2022/04/08 00:20:51;;;;;;;;;;;14.90;93.70;;;;;;5207010;28;19921;-39
2022/04/08 00:23:22;;;;;;;;;;;14.90;93.60;;;;;;5207639;28;19944;-39
2022/04/08 00:25:53;;;;;;;;;;;14.80;93.70;;;;;;5207654;28;19966;-38
2022/04/08 00:28:25;;;;;;;;;;;14.80;93.50;;;;;;5207806;28;19925;-38
2022/04/08 00:30:56;;;;;;;;;;;14.80;93.50;;;;;;5207434;28;19921;-38
2022/04/08 00:33:26;;;;;;;;;;;14.80;93.30;;;;;;5211678;28;20362;-38
2022/04/08 00:35:57;;;;;;;;;;;14.80;93.20;;;;;;5211659;28;20314;-39
2022/04/08 00:38:28;;;;;;;;;;;14.70;93.30;;;;;;5210502;28;19921;-39
2022/04/08 00:40:59;;;;;;;;;;;14.60;93.10;;;;;;5211138;28;20274;-38
2022/04/08 00:43:31;;;;;;;;;;;14.70;92.90;;;;;;5211494;28;19921;-38
2022/04/08 00:46:03;;;;;;;;;;;14.70;92.80;;;;;;5211648;28;19921;-38
2022/04/08 00:48:34;;;;;;;;;;;14.80;92.50;;;;;;5193245;28;20305;-38
2022/04/08 00:51:05;;;;;;;;;;;14.80;92.50;;;;;;5211245;28;19920;-38
2022/04/08 00:53:37;;;;;;;;;;;14.70;92.40;;;;;;5193484;28;19928;-38
2022/04/08 00:56:07;;;;;;;;;;;14.80;92.40;;;;;;5211646;28;20030;-39
2022/04/08 00:58:38;;;;;;;;;;;14.70;92.30;;;;;;5193419;28;19956;-38
2022/04/08 01:01:09;;;;;;;;;;;14.70;92.20;;;;;;5211214;28;19928;-38
2022/04/08 01:03:40;;;;;;;;;;;14.70;92.20;;;;;;5211089;28;20327;-38
2022/04/08 01:06:11;;;;;;;;;;;14.70;92.00;;;;;;5211054;28;19921;-39
2022/04/08 01:08:42;;;;;;;;;;;14.60;91.80;;;;;;5210628;28;19927;-38
2022/04/08 01:11:13;;;;;;;;;;;14.60;91.80;;;;;;5193448;28;19928;-38
2022/04/08 01:13:44;;;;;;;;;;;14.60;91.40;;;;;;5211238;28;20007;-38
2022/04/08 01:16:15;;;;;;;;;;;14.60;91.40;;;;;;5210794;28;19982;-38
2022/04/08 01:18:45;;;;;;;;;;;14.70;91.20;;;;;;5210667;28;19921;-39
2022/04/08 01:21:17;;;;;;;;;;;14.70;91.20;;;;;;5210685;28;20008;-38
2022/04/08 01:23:48;;;;;;;;;;;14.70;91.10;;;;;;5209992;28;20007;-39
2022/04/08 01:26:19;;;;;;;;;;;14.70;91.10;;;;;;5192895;28;19920;-38
2022/04/08 01:28:51;;;;;;;;;;;14.70;90.90;;;;;;5210327;28;19991;-39
2022/04/08 01:31:24;;;;;;;;;;;14.70;90.90;;;;;;5193130;28;20378;-38
2022/04/08 01:33:55;;;;;;;;;;;14.70;90.70;;;;;;5209991;28;19928;-39
2022/04/08 01:36:26;;;;;;;;;;;14.70;90.60;;;;;;5209164;28;20374;-38
2022/04/08 01:38:56;;;;;;;;;;;14.70;90.70;;;;;;5210079;28;19928;-38
2022/04/08 01:41:30;;;;;;;;;;;14.60;90.70;;;;;;5210107;28;19948;-38
2022/04/08 01:44:01;;;;;;;;;;;14.50;90.60;;;;;;5209766;28;19921;-38
2022/04/08 01:46:32;;;;;;;;;;;14.50;90.70;;;;;;5192428;28;19921;-38
2022/04/08 01:49:03;;;;;;;;;;;14.50;90.80;;;;;;5210506;28;19928;-39
2022/04/08 01:51:34;;;;;;;;;;;14.60;90.70;;;;;;5210237;28;19975;-39
2022/04/08 01:54:05;;;;;;;;;;;14.60;90.50;;;;;;5210033;28;19921;-39
2022/04/08 01:56:36;;;;;;;;;;;14.70;90.50;;;;;;5210328;28;20351;-39
2022/04/08 01:59:06;;;;;;;;;;;14.70;90.70;;;;;;5210169;28;19964;-38
2022/04/08 02:01:37;;;;;;;;;;;14.70;90.50;;;;;;5210032;28;19971;-39
2022/04/08 02:04:08;;;;;;;;;;;14.80;90.50;;;;;;5209912;28;19932;-38
2022/04/08 02:06:42;;;;;;;;;;;14.80;90.50;;;;;;5209936;28;20259;-39
2022/04/08 02:09:13;;;;;;;;;;;14.80;90.60;;;;;;5209756;28;20016;-38
2022/04/08 02:11:44;;;;;;;;;;;14.90;90.60;;;;;;5209965;28;19928;-38
2022/04/08 02:14:15;;;;;;;;;;;14.90;90.70;;;;;;5192017;28;19960;-38
2022/04/08 02:16:45;;;;;;;;;;;14.90;90.70;;;;;;5210147;28;19921;-38
2022/04/08 02:19:16;;;;;;;;;;;14.90;90.80;;;;;;5192195;28;19968;-38
2022/04/08 02:21:48;;;;;;;;;;;14.90;90.90;;;;;;5209594;28;20394;-38
2022/04/08 02:24:19;;;;;;;;;;;14.90;90.90;;;;;;5209769;28;19920;-38
2022/04/08 02:26:50;;;;;;;;;;;14.90;91.00;;;;;;5191951;28;19925;-37
2022/04/08 02:29:21;;;;;;;;;;;14.90;91.00;;;;;;5209582;28;19975;-39
2022/04/08 02:31:54;;;;;;;;;;;14.90;91.10;;;;;;5209844;28;19960;-38
2022/04/08 02:34:25;;;;;;;;;;;14.90;91.10;;;;;;5209124;28;19995;-39
2022/04/08 02:36:56;;;;;;;;;;;14.90;91.20;;;;;;5209462;28;19928;-38
2022/04/08 02:39:28;;;;;;;;;;;14.90;91.30;;;;;;5191133;28;19979;-39
2022/04/08 02:41:59;;;;;;;;;;;14.80;91.30;;;;;;5190677;28;20365;-38
2022/04/08 02:44:30;;;;;;;;;;;14.80;91.30;;;;;;5209496;28;19956;-38
2022/04/08 02:47:02;;;;;;;;;;;14.70;91.00;;;;;;5209131;28;19925;-39
2022/04/08 02:49:33;;;;;;;;;;;14.70;91.00;;;;;;5208857;28;19921;-38
2022/04/08 02:52:04;;;;;;;;;;;14.70;90.70;;;;;;5209011;28;19990;-38
2022/04/08 02:54:35;;;;;;;;;;;14.60;90.60;;;;;;5208107;28;19928;-39
2022/04/08 02:57:06;;;;;;;;;;;14.70;90.50;;;;;;5209432;28;19921;-38
2022/04/08 02:59:37;;;;;;;;;;;14.70;90.40;;;;;;5209090;28;19928;-38
2022/04/08 03:02:07;;;;;;;;;;;14.70;90.40;;;;;;5208686;28;19932;-38
2022/04/08 03:04:38;;;;;;;;;;;14.70;90.20;;;;;;5208938;28;19932;-38
2022/04/08 03:07:09;;;;;;;;;;;14.70;90.20;;;;;;5208787;28;19921;-38
2022/04/08 03:09:40;;;;;;;;;;;14.70;90.10;;;;;;5208693;28;19952;-38
2022/04/08 03:12:11;;;;;;;;;;;14.70;90.20;;;;;;5208397;28;19970;-39
2022/04/08 03:14:42;;;;;;;;;;;14.70;90.10;;;;;;5208574;28;19971;-38
2022/04/08 03:17:13;;;;;;;;;;;14.70;90.10;;;;;;5208979;28;20266;-38
2022/04/08 03:19:44;;;;;;;;;;;14.70;90.10;;;;;;5208825;28;19921;-38
2022/04/08 03:22:19;;;;;;;;;;;14.70;90.00;;;;;;5190940;28;20006;-38
2022/04/08 03:24:50;;;;;;;;;;;14.70;89.90;;;;;;5208373;28;19921;-38
2022/04/08 03:27:21;;;;;;;;;;;14.70;89.80;;;;;;5190863;28;19953;-38
2022/04/08 03:29:52;;;;;;;;;;;14.70;89.70;;;;;;5208121;28;19963;-39
2022/04/08 03:32:23;;;;;;;;;;;14.70;89.70;;;;;;5208164;28;19921;-39
2022/04/08 03:35:00;;;;;;;;;;;14.70;89.60;;;;;;5208158;28;20362;-38
2022/04/08 03:37:31;;;;;;;;;;;14.70;89.80;;;;;;5208514;28;19921;-39
2022/04/08 03:40:02;;;;;;;;;;;14.70;89.90;;;;;;5208364;28;19921;-39
2022/04/08 03:42:33;;;;;;;;;;;14.70;90.00;;;;;;5190395;28;19928;-39
2022/04/08 03:45:05;;;;;;;;;;;14.70;89.80;;;;;;5207803;28;19974;-39
2022/04/08 03:47:36;;;;;;;;;;;14.70;89.90;;;;;;5207811;28;19928;-38
2022/04/08 03:50:10;;;;;;;;;;;14.70;90.10;;;;;;5207522;28;20325;-39
2022/04/08 03:52:42;;;;;;;;;;;14.70;89.80;;;;;;5207727;28;20387;-39
2022/04/08 03:55:13;;;;;;;;;;;14.70;89.80;;;;;;5208302;28;19921;-42
2022/04/08 03:57:44;;;;;;;;;;;14.70;89.20;;;;;;5207798;28;19925;-42
2022/04/08 04:00:15;;;;;;;;;;;14.80;89.30;;;;;;5189658;28;19921;-39
2022/04/08 04:02:47;;;;;;;;;;;14.80;89.30;;;;;;5206998;28;20025;-41
2022/04/08 04:05:17;;;;;;;;;;;15.00;89.00;;;;;;5207649;28;20378;-39
2022/04/08 04:07:48;;;;;;;;;;;15.00;89.00;;;;;;5207530;28;20001;-40
2022/04/08 04:10:19;;;;;;;;;;;15.10;89.10;;;;;;5207937;28;19948;-40
2022/04/08 04:12:50;;;;;;;;;;;15.20;89.00;;;;;;5207843;28;19928;-41
2022/04/08 04:15:21;;;;;;;;;;;15.20;89.20;;;;;;5207506;28;19948;-39
2022/04/08 04:17:52;;;;;;;;;;;15.20;89.40;;;;;;5208291;28;19921;-39
2022/04/08 04:20:23;;;;;;;;;;;15.30;89.10;;;;;;5207441;28;20259;-40
2022/04/08 04:22:54;;;;;;;;;;;15.40;91.00;;;;;;5207834;28;19921;-38
2022/04/08 04:25:26;;;;;;;;;;;15.50;88.90;;;;;;5206645;28;20054;-40
2022/04/08 04:27:57;;;;;;;;;;;15.50;89.00;;;;;;5207563;28;20012;-40
2022/04/08 04:30:27;;;;;;;;;;;15.50;89.10;;;;;;5206502;28;20008;-40
2022/04/08 04:33:00;;;;;;;;;;;15.50;89.20;;;;;;5207567;28;19925;-41
2022/04/08 04:35:31;;;;;;;;;;;15.50;89.70;;;;;;5207410;28;19925;-39
2022/04/08 04:38:02;;;;;;;;;;;15.40;90.00;;;;;;5207476;28;20310;-40
2022/04/08 04:40:33;;;;;;;;;;;15.30;90.10;;;;;;5207384;28;20026;-40
2022/04/08 04:43:04;;;;;;;;;;;15.10;90.40;;;;;;5189962;28;19921;-39
2022/04/08 04:45:37;;;;;;;;;;;15.10;90.40;;;;;;5207541;28;20259;-39
2022/04/08 04:48:10;;;;;;;;;;;15.10;90.40;;;;;;5207210;28;19928;-39
2022/04/08 04:50:41;;;;;;;;;;;15.00;90.60;;;;;;5207310;28;19974;-39
2022/04/08 04:53:12;;;;;;;;;;;15.00;90.50;;;;;;5207505;28;19921;-41
2022/04/08 04:55:42;;;;;;;;;;;15.10;90.50;;;;;;5207363;28;19952;-40
2022/04/08 04:58:13;;;;;;;;;;;15.20;90.50;;;;;;5207462;28;19925;-40
2022/04/08 05:00:44;;;;;;;;;;;15.30;90.10;;;;;;5207327;28;19967;-41
2022/04/08 05:03:15;;;;;;;;;;;15.40;90.30;;;;;;5207196;28;19921;-38
2022/04/08 05:05:47;;;;;;;;;;;15.40;90.30;;;;;;5207504;28;20317;-39
2022/04/08 05:08:18;;;;;;;;;;;15.40;90.20;;;;;;5198871;28;19926;-39
2022/04/08 05:10:49;;;;;;;;;;;15.40;90.20;;;;;;5186736;28;20351;-39
2022/04/08 05:13:20;;;;;;;;;;;15.40;90.20;;;;;;5187420;28;19929;-39
2022/04/08 05:15:51;;;;;;;;;;;15.40;90.20;;;;;;5185001;28;19933;-38
2022/04/08 05:18:22;;;;;;;;;;;15.40;90.30;;;;;;5200501;28;20436;-38
2022/04/08 05:20:53;;;;;;;;;;;15.40;90.50;;;;;;5208270;28;19925;-41
2022/04/08 05:23:28;;;;;;;;;;;15.40;90.40;;;;;;5208343;28;19936;-39
2022/04/08 05:25:59;;;;;;;;;;;15.60;90.20;;;;;;5207912;28;19921;-39
2022/04/08 05:28:30;;;;;;;;;;;15.60;90.20;;;;;;5208595;28;20345;-41
2022/04/08 05:31:01;;;;;;;;;;;15.60;90.40;;;;;;5208376;28;19960;-41
2022/04/08 05:33:32;;;;;;;;;;;15.50;90.60;;;;;;5190830;28;19956;-41
2022/04/08 05:36:03;;;;;;;;;;;15.60;90.40;;;;;;5208180;28;19921;-41
2022/04/08 05:38:34;;;;;;;;;;;15.60;90.50;;;;;;5208023;28;19925;-41
2022/04/08 05:41:05;;;;;;;;;;;15.60;90.40;;;;;;5208196;28;19925;-40
2022/04/08 05:43:36;;;;;;;;;;;15.60;90.40;;;;;;5208063;28;19963;-40
2022/04/08 05:46:07;;;;;;;;;;;15.60;90.50;;;;;;5187560;28;19948;-40
2022/04/08 05:48:38;;;;;;;;;;;15.60;90.40;;;;;;5194917;28;19936;-39
2022/04/08 05:51:14;;;;;;;;;;;15.50;90.50;;;;;;5201847;28;19947;-41
2022/04/08 05:53:45;;;;;;;;;;;15.40;90.60;;;;;;5191600;28;19937;-41
2022/04/08 05:56:16;;;;;;;;;;;15.50;90.50;;;;;;5201388;28;20059;-42
2022/04/08 05:58:47;;;;;;;;;;;15.50;90.60;;;;;;5199761;28;20202;-41
2022/04/08 06:01:19;;;;;;;;;;;15.50;90.40;;;;;;5192203;28;20020;-42
2022/04/08 06:03:54;;;;;;;;;;;15.40;90.50;;;;;;5201082;28;19921;-47
2022/04/08 06:06:25;;;;;;;;;;;15.40;90.50;;;;;;5203848;28;19921;-45
2022/04/08 06:08:56;;;;;;;;;;;15.40;90.70;;;;;;5195474;28;20366;-42
2022/04/08 06:11:27;;;;;;;;;;;15.30;90.70;;;;;;5196594;28;19952;-40
2022/04/08 06:13:58;;;;;;;;;;;15.30;90.50;;;;;;5194600;28;20329;-41
2022/04/08 06:16:29;;;;;;;;;;;15.30;90.40;;;;;;5202941;28;19922;-41
2022/04/08 06:19:00;;;;;;;;;;;15.30;90.20;;;;;;5196451;28;20259;-40
2022/04/08 06:21:31;;;;;;;;;;;15.30;90.10;;;;;;5195573;28;19929;-43
2022/04/08 06:24:02;;;;;;;;;;;15.30;90.20;;;;;;5188669;28;20297;-40
2022/04/08 06:26:34;;;;;;;;;;;15.30;89.90;;;;;;5196640;28;19922;-40
2022/04/08 06:29:05;;;;;;;;;;;15.20;90.10;;;;;;5174735;28;20445;-41
2022/04/08 06:31:36;;;;;;;;;;;15.20;90.00;;;;;;5197517;28;20020;-39
2022/04/08 06:34:07;;;;;;;;;;;15.00;90.10;;;;;;5191665;28;20122;-40
2022/04/08 06:36:38;;;;;;;;;;;15.10;90.20;;;;;;5198795;28;19929;-41
2022/04/08 06:39:09;;;;;;;;;;;15.00;89.90;;;;;;5189911;28;19933;-43
2022/04/08 06:41:40;;;;;;;;;;;14.90;90.20;;;;;;5188723;28;19926;-41
2022/04/08 06:44:12;;;;;;;;;;;14.80;90.20;;;;;;5191900;28;19951;-42
2022/04/08 06:46:43;;;;;;;;;;;14.70;90.00;;;;;;5195307;28;19938;-40
2022/04/08 06:49:14;;;;;;;;;;;14.70;90.10;;;;;;5192204;28;19936;-46
2022/04/08 06:51:45;;;;;;;;;;;14.80;89.80;;;;;;5201649;28;19921;-41
2022/04/08 06:54:16;;;;;;;;;;;14.90;89.80;;;;;;5209442;28;19921;-40
2022/04/08 06:56:47;;;;;;;;;;;14.90;90.10;;;;;;5209105;28;19928;-40
2022/04/08 06:59:18;;;;;;;;;;;14.80;90.20;;;;;;5191102;28;19932;-42
2022/04/08 07:01:49;;;;;;;;;;;14.90;90.20;;;;;;5208641;28;19921;-41
2022/04/08 07:04:20;;;;;;;;;;;14.90;90.30;;;;;;5191333;28;20259;-39
2022/04/08 07:06:52;;;;;;;;;;;14.80;90.50;;;;;;5208498;28;19928;-42
2022/04/08 07:09:24;;;;;;;;;;;15.00;90.50;;;;;;5190661;28;19921;-40
2022/04/08 07:11:56;;;;;;;;;;;15.00;90.40;;;;;;5190862;28;19921;-41
2022/04/08 07:14:27;;;;;;;;;;;14.90;90.80;;;;;;5208187;28;19925;-41
2022/04/08 07:16:58;;;;;;;;;;;14.90;90.90;;;;;;5208333;28;19925;-43
2022/04/08 07:19:29;;;;;;;;;;;14.90;90.80;;;;;;5208707;28;19921;-40
2022/04/08 07:22:00;;;;;;;;;;;14.80;90.90;;;;;;5208421;28;19921;-40
2022/04/08 07:24:31;;;;;;;;;;;14.80;90.90;;;;;;5208352;28;19971;-41
2022/04/08 07:27:02;;;;;;;;;;;14.80;90.70;;;;;;5207964;28;19958;-43
2022/04/08 07:29:33;;;;;;;;;;;14.80;90.50;;;;;;5208222;28;20363;-43
2022/04/08 07:32:04;;;;;;;;;;;14.80;90.70;;;;;;5208268;28;19928;-41
2022/04/08 07:34:36;;;;;;;;;;;14.80;90.60;;;;;;5207818;28;20003;-41
2022/04/08 07:37:08;;;;;;;;;;;14.80;90.40;;;;;;5207751;28;19947;-43
2022/04/08 07:39:41;;;;;;;;;;;14.90;90.10;;;;;;5207710;28;19959;-42
2022/04/08 07:42:12;;;;;;;;;;;14.90;90.20;;;;;;5207409;28;19928;-43
2022/04/08 07:44:43;;;;;;;;;;;14.90;90.10;;;;;;5208010;28;19928;-44
2022/04/08 07:47:15;;;;;;;;;;;14.90;89.80;;;;;;5207943;28;19954;-48
2022/04/08 07:49:47;;;;;;;;;;;14.90;89.50;;;;;;5207269;28;19967;-41
2022/04/08 07:52:18;;;;;;;;;;;14.90;89.10;;;;;;5207675;28;19978;-44
2022/04/08 07:54:49;;;;;;;;;;;14.80;88.90;;;;;;5208052;28;19964;-43
2022/04/08 07:57:20;;;;;;;;;;;14.90;88.50;;;;;;5207742;28;20424;-47
2022/04/08 07:59:51;;;;;;;;;;;14.80;88.30;;;;;;5207554;28;19928;-42
2022/04/08 08:02:26;;;;;;;;;;;14.70;88.30;;;;;;5207363;28;19920;-41
2022/04/08 08:04:57;;;;;;;;;;;14.70;87.70;;;;;;5207970;28;19968;-45
2022/04/08 08:07:28;;;;;;;;;;;14.70;86.80;;;;;;5207637;28;20270;-42
2022/04/08 08:09:59;;;;;;;;;;;14.70;86.20;;;;;;5207344;28;19921;-41
2022/04/08 08:12:30;;;;;;;;;;;14.70;85.70;;;;;;5207406;28;20369;-40
2022/04/08 08:15:02;;;;;;;;;;;14.80;85.20;;;;;;5207381;28;19921;-42
2022/04/08 08:17:45;;;;;;;;;;;14.70;84.90;;;;;;5189834;28;19921;-41
2022/04/08 08:20:23;;;;;;;;;;;14.70;85.10;;;;;;5207226;28;19921;-44
2022/04/08 08:23:00;;;;;;;;;;;14.70;84.40;;;;;;5207429;28;19921;-41
2022/04/08 08:25:32;;;;;;;;;;;14.70;84.10;;;;;;5207188;28;20316;-41
2022/04/08 08:28:04;;;;;;;;;;;14.80;84.10;;;;;;5207849;28;19928;-41
2022/04/08 08:30:39;;;;;;;;;;;14.70;83.90;;;;;;5207650;28;19921;-42
2022/04/08 08:33:11;;;;;;;;;;;14.80;83.50;;;;;;5207526;28;19925;-40
2022/04/08 08:35:45;;;;;;;;;;;14.80;83.30;;;;;;5207031;28;20019;-42
2022/04/08 08:38:17;;;;;;;;;;;14.70;83.90;;;;;;5207895;28;19932;-42
2022/04/08 08:40:48;;;;;;;;;;;14.70;83.80;;;;;;5207569;28;19971;-42
2022/04/08 08:43:20;;;;;;;;;;;14.70;84.00;;;;;;5207056;28;19921;-43
2022/04/08 08:45:52;;;;;;;;;;;14.80;83.50;;;;;;5189719;28;19974;-41
2022/04/08 08:48:30;;;;;;;;;;;14.80;83.80;;;;;;5189687;28;20376;-42
2022/04/08 08:51:06;;;;;;;;;;;14.80;84.40;;;;;;5190617;28;20401;-46
2022/04/08 08:53:41;;;;;;;;;;;14.90;84.60;;;;;;5177515;28;20286;-45
2022/04/08 08:56:15;;;;;;;;;;;14.90;84.70;;;;;;5193789;28;19921;-43
2022/04/08 08:59:08;;;;;;;;;;;14.90;85.20;;;;;;5210891;28;20007;-43
2022/04/08 09:01:49;;;;;;;;;;;14.80;85.90;;;;;;5194613;28;20358;-43
2022/04/08 09:04:20;;;;;;;;;;;14.90;85.70;;;;;;5210789;28;19928;-40
2022/04/08 09:06:51;;;;;;;;;;;14.90;84.70;;;;;;5210469;28;20050;-43
2022/04/08 09:09:30;;;;;;;;;;;14.80;85.00;;;;;;5210477;28;20015;-41
2022/04/08 09:12:13;;;;;;;;;;;14.80;84.90;;;;;;5210527;28;20348;-42
2022/04/08 09:14:51;;;;;;;;;;;14.80;84.10;;;;;;5211002;28;20008;-41
2022/04/08 09:17:23;;;;;;;;;;;14.80;84.20;;;;;;5192814;28;19929;-42
2022/04/08 09:19:54;;;;;;;;;;;14.80;83.80;;;;;;5210543;28;20436;-41
2022/04/08 09:22:27;;;;;;;;;;;14.80;83.90;;;;;;5210560;28;19928;-45
2022/04/08 09:25:10;;;;;;;;;;;14.90;83.20;;;;;;5210274;28;19925;-45
2022/04/08 09:27:41;;;;;;;;;;;14.90;83.30;;;;;;5210289;28;19982;-47
2022/04/08 09:30:16;;;;;;;;;;;15.00;83.00;;;;;;5210294;28;19921;-42
2022/04/08 09:32:54;;;;;;;;;;;15.00;82.60;;;;;;5210194;28;19925;-42
2022/04/08 09:35:29;;;;;;;;;;;15.00;82.70;;;;;;5193037;28;19950;-41
2022/04/08 09:38:01;;;;;;;;;;;14.90;83.30;;;;;;5209946;28;19921;-42
2022/04/08 09:40:36;;;;;;;;;;;14.90;83.00;;;;;;5210116;28;19921;-41
2022/04/08 09:43:07;;;;;;;;;;;14.90;82.40;;;;;;5210451;28;19921;-43
2022/04/08 09:45:38;;;;;;;;;;;14.90;82.00;;;;;;5210080;28;19925;-44
2022/04/08 09:48:09;;;;;;;;;;;14.80;82.30;;;;;;5209967;28;19928;-42
2022/04/08 09:50:40;;;;;;;;;;;14.80;82.40;;;;;;5209808;28;19921;-46
2022/04/08 09:53:12;;;;;;;;;;;14.80;82.50;;;;;;5210165;28;20012;-41
2022/04/08 09:55:43;;;;;;;;;;;14.90;82.20;;;;;;5210223;28;19956;-42
2022/04/08 09:58:23;;;;;;;;;;;14.90;82.30;;;;;;5210611;28;19921;-41
2022/04/08 10:01:04;;;;;;;;;;;15.00;82.60;;;;;;5209658;28;19928;-41
2022/04/08 10:04:18;;;;;;;;;;;15.00;83.10;;;;;;5146784;28;19929;-44
2022/04/08 10:07:21;;;;;;;;;;;15.00;83.40;;;;;;5146692;28;19977;-43
2022/04/08 10:09:59;;;;;;;;;;;14.90;84.20;;;;;;5131315;28;19944;-42
2022/04/08 10:13:02;;;;;;;;;;;14.80;85.10;;;;;;5131774;28;20433;-41
2022/04/08 10:15:56;;;;;;;;;;;14.90;83.50;;;;;;5146333;28;19937;-40
2022/04/08 10:18:35;;;;;;;;;;;14.80;82.40;;;;;;5131538;28;20342;-41
2022/04/08 10:21:18;;;;;;;;;;;14.90;82.10;;;;;;5146402;28;19928;-43
2022/04/08 10:24:54;;;;;;;;;;;14.90;82.20;;;;;;5106534;29;20392;-39
2022/04/08 10:28:11;;;;;;;;;;;14.90;83.00;;;;;;5105007;29;20081;-42
2022/04/08 10:31:26;;;;;;;;;;;14.80;83.40;;;;;;5105836;29;20344;-40
2022/04/08 10:33:59;;;;;;;;;;;14.80;83.30;;;;;;5281427;23;19922;-40
2022/04/08 10:36:48;;;;;;;;;;;14.80;83.00;;;;;;5188538;28;19921;-40
2022/04/08 10:39:20;;;;;;;;;;;14.90;82.40;;;;;;5189244;28;20306;-40
2022/04/08 10:41:57;;;;;;;;;;;14.80;82.30;;;;;;5188576;28;19928;-39
2022/04/08 10:44:30;;;;;;;;;;;14.80;81.20;;;;;;5175532;28;19925;-46
2022/04/08 10:47:02;;;;;;;;;;;14.80;81.20;;;;;;5177265;28;20317;-40
2022/04/08 10:49:54;;;;;;;;;;;14.80;79.90;;;;;;5173386;28;20028;-40
2022/04/08 10:52:30;;;;;;;;;;;15.00;79.90;;;;;;5153840;28;20360;-40
2022/04/08 10:55:06;;;;;;;;;;;15.10;79.40;;;;;;5179979;28;19994;-41
2022/04/08 10:57:43;;;;;;;;;;;15.20;78.90;;;;;;5184813;28;19948;-41
2022/04/08 11:00:16;;;;;;;;;;;15.10;79.50;;;;;;5175807;28;20024;-42
2022/04/08 11:02:47;;;;;;;;;;;15.20;79.80;;;;;;5181634;28;20003;-40
2022/04/08 11:05:20;;;;;;;;;;;15.20;79.10;;;;;;5179643;28;19965;-43
2022/04/08 11:07:51;;;;;;;;;;;15.30;78.90;;;;;;5171273;28;19944;-41
2022/04/08 11:10:24;;;;;;;;;;;15.20;79.00;;;;;;5168624;28;19929;-43
2022/04/08 11:12:56;;;;;;;;;;;15.30;79.40;;;;;;5184292;28;20485;-39
2022/04/08 11:15:28;;;;;;;;;;;15.30;79.60;;;;;;5159588;28;19928;-39
2022/04/08 11:18:00;;;;;;;;;;;15.30;79.70;;;;;;5175244;28;20295;-40
2022/04/08 11:20:32;;;;;;;;;;;15.30;80.00;;;;;;5176129;28;20020;-40
2022/04/08 11:23:11;;;;;;;;;;;15.30;80.10;;;;;;5178653;28;19925;-41
2022/04/08 11:28:41;;;;;;;5.10;2.73;;;15.20;79.70;;;;;;5309283;27;20906;-41
2022/04/08 11:31:13;;;;;;;3.37;1.53;;;14.20;83.70;;;;;;5299956;28;20550;-41
2022/04/08 11:33:45;;;;;;;3.13;1.90;;;13.10;87.30;;;;;;5277014;28;20074;-41
2022/04/08 11:36:23;;;;;;;4.47;2.73;;;12.70;88.70;;;;;;5282790;28;20073;-40
2022/04/08 11:38:55;;;;;;;3.17;2.20;;;12.50;88.80;;;;;;5283075;28;20085;-43
2022/04/08 11:41:28;;;;;;;4.10;2.67;;;12.40;89.50;;;;;;5285585;28;20463;-40
2022/04/08 11:44:12;;;;;;;3.27;2.13;;;12.30;88.50;;;;;;5283455;28;20044;-40
2022/04/08 11:47:36;;;;;;;3.30;2.03;;;12.30;87.80;;;;;;5214723;28;20045;-39
2022/04/08 11:50:26;;;;;;;3.33;1.93;;;12.30;87.50;;;;;;5195823;28;20053;-40
2022/04/08 11:53:23;;;;;;;2.87;2.00;;;12.30;89.30;;;;;;5216575;28;20088;-40
2022/04/08 11:56:04;;;;;;;3.60;2.13;;;12.30;89.70;;;;;;5217742;28;20053;-40
2022/04/08 11:58:55;;;;;;;2.53;1.50;;;12.30;89.80;;;;;;5216287;28;20073;-39
2022/04/08 12:01:38;;;;;;;4.33;2.50;;;12.30;87.50;;;;;;5202343;28;20124;-40
2022/04/08 12:04:11;;;;;;;3.97;2.33;;;12.30;87.70;;;;;;5209872;28;20060;-40
2022/04/08 12:06:47;;;;;;;4.75;2.90;;;12.30;88.70;;;;;;5213747;28;20053;-40
2022/04/08 12:09:21;;;;;;;19.40;14.30;;;12.30;89.20;;;;;;5197589;28;20049;-39
2022/04/08 12:11:57;;;;;;;6.47;5.83;;;12.30;87.20;;;;;;5180885;28;20537;-39
2022/04/08 12:14:41;;;;;;;7.67;6.53;;;12.30;87.00;;;;;;5208287;28;20056;-39
2022/04/08 12:17:16;;;;;;;6.30;5.13;;;12.20;87.00;;;;;;5213950;28;20141;-39
2022/04/08 12:19:55;;;;;;;3.80;2.40;;;12.30;88.50;;;;;;5183967;28;20049;-40
2022/04/08 12:23:11;;;;;;;5.37;3.03;;;12.30;90.20;;;;;;5210046;28;20059;-39
2022/04/08 12:25:57;;;;;;;6.13;3.47;;;12.30;90.70;;;;;;5173434;28;20054;-38
2022/04/08 12:28:29;;;;;;;3.73;2.40;;;12.30;90.90;;;;;;5175113;28;20058;-38
2022/04/08 12:31:23;;;;;;;2.10;1.40;;;12.30;90.40;;;;;;5171362;28;20046;-39
2022/04/08 12:33:54;;;;;;;;;;;12.30;89.00;;;;;;5175569;28;20129;-39
2022/04/08 12:36:25;;;;;;;2.13;1.50;;;12.30;89.10;;;;;;5185958;28;20381;-38
2022/04/08 12:38:57;;;;;;;2.13;1.43;;;12.30;88.40;;;;;;5222339;28;20049;-38
2022/04/08 12:41:29;;;;;;;1.65;1.40;;;12.30;87.60;;;;;;5216324;28;20482;-38
2022/04/08 12:43:59;;;;;;;2.17;1.20;;;12.30;89.00;;;;;;5221667;28;20087;-41
2022/04/08 12:46:31;;;;;;;1.80;1.43;;;12.30;88.20;;;;;;5216251;28;20045;-39
2022/04/08 12:49:05;;;;;;;2.03;1.40;;;12.30;89.60;;;;;;5223495;28;20045;-40
2022/04/08 12:51:36;;;;;;;6.73;3.93;;;12.30;89.70;;;;;;5200047;28;20399;-41
2022/04/08 12:54:07;;;;;;;2.23;1.50;;;12.30;88.80;;;;;;5219012;28;20045;-42
2022/04/08 12:56:39;;;;;;;2.43;1.27;;;12.30;87.90;;;;;;5183112;28;20532;-40
2022/04/08 12:59:11;;;;;;;2.00;1.23;;;12.30;86.50;;;;;;5222956;28;20045;-39
2022/04/08 13:01:45;;;;;;;3.20;2.08;;;12.30;85.80;;;;;;5240766;28;20091;-40
2022/04/08 13:04:18;;;;;;;2.50;1.38;;;12.30;85.90;;;;;;5261225;28;20048;-41
2022/04/08 13:06:52;;;;;;;;;;;12.30;86.40;;;;;;5268534;28;20412;-41
2022/04/08 13:09:24;;;;;;;2.28;1.45;;;12.30;87.20;;;;;;5266573;28;19927;-40
2022/04/08 13:11:55;;;;;;;4.10;1.80;;;12.30;86.70;;;;;;5264620;28;20043;-40
2022/04/08 13:14:26;;;;;;;2.27;1.30;;;12.40;87.10;;;;;;5268745;28;20040;-39
2022/04/08 13:16:59;;;;;;;2.37;1.30;;;12.40;87.20;;;;;;5263893;28;20450;-40
2022/04/08 13:19:30;;;;;;;2.63;1.60;;;12.40;88.60;;;;;;5264965;28;20416;-39
2022/04/08 13:22:01;;;;;;;2.70;1.60;;;12.50;87.60;;;;;;5259403;28;20119;-38
2022/04/08 13:24:32;;;;;;;2.57;1.60;;;12.50;88.10;;;;;;5263215;28;20123;-40
2022/04/08 13:27:07;;;;;;;3.33;1.50;;;12.60;86.30;;;;;;5265612;28;20517;-42
2022/04/08 13:29:38;;;;;;;3.15;1.75;;;12.70;86.90;;;;;;5260733;28;20056;-39
2022/04/08 13:32:10;;;;;;;3.50;2.27;;;12.70;86.10;;;;;;5267611;28;20504;-39
2022/04/08 13:34:41;;;;;;;2.95;1.38;;;12.70;86.00;;;;;;5263296;28;20093;-39
2022/04/08 13:37:13;;;;;;;3.10;1.80;;;12.70;85.60;;;;;;5260713;28;20131;-39
2022/04/08 13:39:43;;;;;;;2.70;1.60;;;12.60;86.80;;;;;;5261927;28;20122;-39
2022/04/08 13:42:16;;;;;;;3.67;2.43;;;12.60;88.10;;;;;;5257776;28;20045;-39
2022/04/08 13:44:48;;;;;;;3.92;1.77;;;12.70;87.30;;;;;;5261395;28;20032;-41
2022/04/08 13:47:19;;;;;;;18.03;16.43;;;12.70;90.80;;;;;;5254552;28;20063;-41
2022/04/08 13:49:50;;;;;;;3.57;2.77;;;12.80;90.30;;;;;;5264312;28;20040;-42
2022/04/08 13:52:21;;;;;;;4.43;1.80;;;12.90;88.20;;;;;;5262680;28;20389;-42
2022/04/08 13:54:53;;;;;;;3.10;2.20;;;13.00;87.00;;;;;;5265393;28;20055;-41
2022/04/08 13:57:24;;;;;;;6.57;4.17;;;13.10;88.10;;;;;;5266833;28;20123;-40
2022/04/08 13:59:55;;;;;;;6.53;4.13;;;13.20;87.20;;;;;;5266951;28;20111;-40
2022/04/08 14:02:51;;;;;;;7.40;4.03;;;13.20;83.40;;;;;;5268147;28;20059;-41
2022/04/08 14:05:23;;;;;;;5.63;3.67;;;13.20;80.70;;;;;;5267960;28;20497;-42
2022/04/08 14:07:54;;;;;;;4.63;2.60;;;13.20;84.40;;;;;;5258710;28;20051;-41
2022/04/08 14:10:25;;;;;;;3.43;2.10;;;13.20;88.80;;;;;;5263475;28;20044;-39
2022/04/08 14:12:56;;;;;;;3.70;2.47;;;13.20;86.20;;;;;;5258481;28;20048;-41
2022/04/08 14:15:27;;;;;;;7.90;2.90;;;13.30;89.10;;;;;;5261834;28;20127;-40
2022/04/08 14:17:58;;;;;;;5.50;3.17;;;13.30;85.00;;;;;;5263621;28;20505;-40
2022/04/08 14:20:29;;;;;;;4.40;2.10;;;13.30;83.00;;;;;;5258269;28;20044;-39
2022/04/08 14:23:01;;;;;;;4.53;2.07;;;13.30;84.00;;;;;;5264072;28;20043;-38
2022/04/08 14:25:32;;;;;;;6.33;3.27;;;13.30;82.70;;;;;;5265487;28;20093;-40
2022/04/08 14:28:03;;;;;;;7.90;3.60;;;13.30;83.70;;;;;;5266912;28;20056;-39
2022/04/08 14:30:39;;;;;;;5.53;2.83;;;13.30;84.10;;;;;;5263277;28;20378;-39
2022/04/08 14:33:10;;;;;;;3.90;2.00;;;13.30;81.00;;;;;;5266881;28;20093;-39
2022/04/08 14:35:41;;;;;;;4.17;2.33;;;13.20;79.90;;;;;;5258411;28;20044;-41